Time;durP1;ratioP1;P1;durP2;ratioP2;P2;SDS_P1;SDS_P2;PMS_P1;PMS_P2;Temp;Humidity;BMP_temperature;BMP_pressure;BME280_temperature;BME280_humidity;BME280_pressure;Samples;Min_cycle;Max_cycle;Signal;HPM_P1;HPM_P2
2021/07/03 00:02:16;;;;;;;4.88;3.22;;;486.80;2150.40;;;;;;5070747;28;20035;-62
2021/07/03 00:04:43;;;;;;;8.07;3.22;;;486.70;2176.00;;;;;;5070640;28;20032;-61
2021/07/03 00:07:09;;;;;;;6.32;3.30;;;486.70;2201.60;;;;;;5070267;28;20068;-58
2021/07/03 00:09:36;;;;;;;8.05;3.20;;;486.70;2227.20;;;;;;5070576;28;20446;-67
2021/07/03 00:12:06;;;;;;;7.15;3.70;;;486.60;2201.60;;;;;;5070531;28;20031;-67
2021/07/03 00:14:33;;;;;;;7.85;4.05;;;486.60;2201.60;;;;;;5069514;28;20375;-66
2021/07/03 00:16:58;;;;;;;12.63;4.20;;;486.60;2227.20;;;;;;5070181;28;20055;-62
2021/07/03 00:19:24;;;;;;;5.60;3.70;;;486.70;2176.00;;;;;;5070351;28;20024;-62
2021/07/03 00:21:50;;;;;;;6.88;3.53;;;486.70;2201.60;;;;;;5070172;28;20035;-62
2021/07/03 00:24:16;;;;;;;6.18;3.25;;;486.70;2201.60;;;;;;5070011;28;20040;-64
2021/07/03 00:26:43;;;;;;;4.63;3.15;;;486.70;2201.60;;;;;;5070196;28;20106;-63
2021/07/03 00:29:09;;;;;;;6.20;3.67;;;486.70;2201.60;;;;;;5069826;28;20055;-58
2021/07/03 00:31:35;;;;;;;6.40;3.90;;;486.60;2227.20;;;;;;5070207;28;20052;-60
2021/07/03 00:34:00;;;;;;;7.15;3.92;;;486.40;2227.20;;;;;;5069905;28;20017;-58
2021/07/03 00:36:26;;;;;;;5.20;3.10;;;486.40;2252.80;;;;;;5070010;28;20142;-59
2021/07/03 00:38:52;;;;;;;4.93;3.42;;;486.40;2252.80;;;;;;5070117;28;20382;-66
2021/07/03 00:41:17;;;;;;;11.02;3.72;;;486.40;2252.80;;;;;;5069768;28;20032;-62
2021/07/03 00:43:43;;;;;;;4.80;3.35;;;461.70;2278.40;;;;;;5069817;28;20071;-65
2021/07/03 00:46:09;;;;;;;4.85;3.03;;;461.50;2304.00;;;;;;5069988;28;20111;-62
2021/07/03 00:48:35;;;;;;;4.90;3.25;;;461.50;2278.40;;;;;;5069981;28;20382;-61
2021/07/03 00:51:00;;;;;;;7.05;3.15;;;461.50;2278.40;;;;;;5069907;28;20111;-64
2021/07/03 00:53:27;;;;;;;5.90;3.92;;;461.70;2227.20;;;;;;5069756;28;20500;-58
2021/07/03 00:55:53;;;;;;;5.20;3.92;;;461.70;2252.80;;;;;;5070008;28;20101;-64
2021/07/03 00:58:19;;;;;;;6.25;4.00;;;461.70;2252.80;;;;;;5069774;28;20466;-63
2021/07/03 01:00:45;;;;;;;5.15;3.42;;;461.70;2252.80;;;;;;5069852;28;20082;-61
2021/07/03 01:03:11;;;;;;;6.18;3.60;;;461.70;2227.20;;;;;;5069780;28;20025;-64
2021/07/03 01:05:37;;;;;;;5.35;3.38;;;461.70;2227.20;;;;;;5069524;28;20119;-66
2021/07/03 01:08:03;;;;;;;5.65;3.92;;;486.40;2227.20;;;;;;5069983;28;20020;-66
2021/07/03 01:10:30;;;;;;;7.18;4.25;;;486.40;2201.60;;;;;;5069617;28;20025;-60
2021/07/03 01:12:57;;;;;;;5.20;3.55;;;486.50;2201.60;;;;;;5069743;28;20032;-65
2021/07/03 01:15:25;;;;;;;5.57;3.60;;;486.50;2201.60;;;;;;5069892;28;20017;-61
2021/07/03 01:17:51;;;;;;;5.40;3.40;;;486.50;2201.60;;;;;;5069351;28;20466;-65
2021/07/03 01:20:17;;;;;;;4.63;3.40;;;486.50;2201.60;;;;;;5069568;28;20029;-57
2021/07/03 01:22:45;;;;;;;5.32;3.50;;;486.60;2227.20;;;;;;5069495;28;20078;-56
2021/07/03 01:25:12;;;;;;;10.50;3.88;;;486.60;2227.20;;;;;;5070708;28;20451;-63
2021/07/03 01:27:39;;;;;;;7.00;3.60;;;486.60;2252.80;;;;;;5073219;28;20037;-58
2021/07/03 01:30:08;;;;;;;5.35;3.10;;;486.60;2252.80;;;;;;5073316;28;20021;-61
2021/07/03 01:32:34;;;;;;;6.10;3.75;;;486.50;2278.40;;;;;;5073439;28;20031;-65
2021/07/03 01:35:00;;;;;;;5.32;3.90;;;486.50;2278.40;;;;;;5073156;28;20025;-59
2021/07/03 01:37:26;;;;;;;6.00;4.15;;;486.50;2278.40;;;;;;5073253;28;20142;-62
2021/07/03 01:39:52;;;;;;;7.75;4.30;;;486.50;2227.20;;;;;;5073148;28;20027;-57
2021/07/03 01:42:18;;;;;;;8.50;4.18;;;486.50;2252.80;;;;;;5073033;28;20405;-62
2021/07/03 01:44:45;;;;;;;4.72;3.33;;;486.50;2252.80;;;;;;5072981;28;20116;-57
2021/07/03 01:47:12;;;;;;;5.28;3.72;;;486.40;2227.20;;;;;;5073036;28;20035;-62
2021/07/03 01:49:43;;;;;;;6.20;3.45;;;486.50;2227.20;;;;;;5072706;28;20021;-57
2021/07/03 01:52:09;;;;;;;8.70;4.10;;;486.40;2201.60;;;;;;5072931;28;20056;-59
2021/07/03 01:54:36;;;;;;;5.57;3.30;;;486.60;2201.60;;;;;;5072953;28;20075;-64
2021/07/03 01:57:02;;;;;;;6.57;3.22;;;486.60;2201.60;;;;;;5073045;28;20035;-66
2021/07/03 01:59:30;;;;;;;5.40;3.13;;;486.60;2201.60;;;;;;5072519;28;20032;-59
2021/07/03 02:01:57;;;;;;;7.30;4.10;;;486.60;2176.00;;;;;;5072959;28;20633;-57
2021/07/03 02:04:24;;;;;;;6.53;3.80;;;486.50;2201.60;;;;;;5072819;28;20021;-62
2021/07/03 02:06:50;;;;;;;6.05;3.22;;;486.60;2201.60;;;;;;5072623;28;20040;-60
2021/07/03 02:09:16;;;;;;;6.40;3.72;;;486.50;2176.00;;;;;;5072746;28;20359;-61
2021/07/03 02:11:42;;;;;;;10.32;3.92;;;486.60;2176.00;;;;;;5072647;28;20107;-64
2021/07/03 02:14:08;;;;;;;6.05;3.80;;;486.60;2150.40;;;;;;5072206;28;20048;-67
2021/07/03 02:16:34;;;;;;;4.85;3.33;;;486.60;2176.00;;;;;;5072685;28;20114;-60
2021/07/03 02:19:01;;;;;;;5.93;3.35;;;486.70;2176.00;;;;;;5072478;28;20035;-58
2021/07/03 02:21:27;;;;;;;5.35;3.90;;;486.60;2201.60;;;;;;5072449;28;20028;-55
2021/07/03 02:23:53;;;;;;;4.97;3.30;;;486.70;2227.20;;;;;;5071999;28;20101;-60
2021/07/03 02:26:20;;;;;;;5.00;3.67;;;486.80;2227.20;;;;;;5072036;28;20048;-58
2021/07/03 02:28:46;;;;;;;9.05;3.38;;;486.70;2227.20;;;;;;5072198;28;20048;-60
2021/07/03 02:31:12;;;;;;;5.15;3.80;;;486.60;2252.80;;;;;;5072286;28;20060;-61
2021/07/03 02:33:37;;;;;;;6.07;3.50;;;486.50;2252.80;;;;;;5072104;28;20378;-60
2021/07/03 02:36:03;;;;;;;7.85;3.72;;;486.50;2278.40;;;;;;5071989;28;20024;-60
2021/07/03 02:38:29;;;;;;;8.93;3.75;;;486.60;2252.80;;;;;;5071671;28;20628;-58
2021/07/03 02:40:55;;;;;;;5.35;3.67;;;486.60;2252.80;;;;;;5072214;28;20027;-57
2021/07/03 02:43:20;;;;;;;5.05;3.47;;;486.60;2252.80;;;;;;5071604;28;20028;-57
2021/07/03 02:45:46;;;;;;;6.95;3.38;;;486.50;2252.80;;;;;;5072048;28;20028;-58
2021/07/03 02:48:12;;;;;;;5.47;3.60;;;486.40;2252.80;;;;;;5071797;28;20489;-59
2021/07/03 02:50:38;;;;;;;5.50;4.07;;;486.50;2252.80;;;;;;5071869;28;20035;-62
2021/07/03 02:53:03;;;;;;;4.82;3.08;;;486.50;2252.80;;;;;;5071793;28;20025;-60
2021/07/03 02:55:29;;;;;;;5.90;3.20;;;486.60;2227.20;;;;;;5071581;28;20474;-60
2021/07/03 02:57:55;;;;;;;5.78;3.30;;;486.50;2252.80;;;;;;5071897;28;20032;-58
2021/07/03 03:00:21;;;;;;;6.18;3.45;;;486.50;2252.80;;;;;;5071597;28;20379;-64
2021/07/03 03:02:46;;;;;;;7.07;3.92;;;486.50;2252.80;;;;;;5071480;28;20074;-57
2021/07/03 03:05:14;;;;;;;6.63;3.78;;;486.40;2252.80;;;;;;5071716;28;20020;-60
2021/07/03 03:07:41;;;;;;;5.13;3.50;;;486.40;2278.40;;;;;;5071484;28;20120;-62
2021/07/03 03:10:12;;;;;;;6.15;3.47;;;486.40;2252.80;;;;;;5071420;28;20096;-60
2021/07/03 03:12:37;;;;;;;7.47;3.65;;;486.40;2278.40;;;;;;5071892;28;20031;-55
2021/07/03 03:15:04;;;;;;;8.88;3.72;;;486.50;2252.80;;;;;;5071452;28;20024;-63
2021/07/03 03:17:30;;;;;;;7.80;3.67;;;486.60;2252.80;;;;;;5071228;28;20025;-61
2021/07/03 03:19:56;;;;;;;8.23;4.13;;;486.60;2278.40;;;;;;5071396;28;20557;-59
2021/07/03 03:22:22;;;;;;;4.88;3.10;;;486.60;2278.40;;;;;;5071158;28;20405;-63
2021/07/03 03:24:47;;;;;;;7.47;3.67;;;486.60;2278.40;;;;;;5070835;28;20456;-66
2021/07/03 03:27:13;;;;;;;4.50;3.28;;;486.60;2278.40;;;;;;5071042;28;20033;-62
2021/07/03 03:29:39;;;;;;;5.50;3.90;;;486.60;2278.40;;;;;;5070866;28;20021;-62
2021/07/03 03:32:06;;;;;;;7.25;3.45;;;486.60;2278.40;;;;;;5071225;28;20047;-66
2021/07/03 03:34:32;;;;;;;5.95;3.53;;;486.60;2278.40;;;;;;5070699;28;20415;-56
2021/07/03 03:36:58;;;;;;;5.15;3.28;;;486.60;2278.40;;;;;;5050819;28;20089;-60
2021/07/03 03:39:24;;;;;;;4.15;3.25;;;486.60;2252.80;;;;;;5050960;28;20368;-63
2021/07/03 03:41:49;;;;;;;6.63;3.50;;;486.80;2252.80;;;;;;5050724;28;20383;-58
2021/07/03 03:44:15;;;;;;;6.03;3.40;;;486.80;2227.20;;;;;;5050699;28;20021;-65
2021/07/03 03:46:41;;;;;;;5.43;3.28;;;487.10;2201.60;;;;;;5050513;28;20040;-62
2021/07/03 03:49:07;;;;;;;5.07;3.75;;;487.20;2201.60;;;;;;5050678;28;20414;-63
2021/07/03 03:51:33;;;;;;;6.28;3.90;;;487.20;2201.60;;;;;;5050776;28;20028;-54
2021/07/03 03:53:59;;;;;;;10.18;3.92;;;512.00;2176.00;;;;;;5050395;28;20025;-68
2021/07/03 03:56:25;;;;;;;4.53;3.15;;;487.30;2201.60;;;;;;5050847;28;20028;-60
2021/07/03 03:58:50;;;;;;;6.85;3.28;;;512.00;2201.60;;;;;;5050447;28;20483;-60
2021/07/03 04:01:16;;;;;;;3.88;2.90;;;512.10;2227.20;;;;;;5050529;28;20029;-59
2021/07/03 04:03:42;;;;;;;5.53;3.13;;;512.00;2227.20;;;;;;5050502;28;20025;-62
2021/07/03 04:06:07;;;;;;;4.63;3.28;;;487.30;2227.20;;;;;;5050426;28;20044;-60
2021/07/03 04:08:34;;;;;;;6.10;2.90;;;487.30;2227.20;;;;;;5050855;28;20521;-62
2021/07/03 04:11:00;;;;;;;4.50;3.13;;;512.10;2227.20;;;;;;5050263;28;20028;-65
2021/07/03 04:13:26;;;;;;;5.80;2.83;;;512.00;2227.20;;;;;;5050269;28;20468;-58
2021/07/03 04:15:52;;;;;;;4.28;3.03;;;512.00;2227.20;;;;;;5050249;28;20082;-58
2021/07/03 04:18:18;;;;;;;7.03;3.30;;;512.00;2252.80;;;;;;5050389;28;20029;-60
2021/07/03 04:20:43;;;;;;;5.25;3.03;;;512.10;2227.20;;;;;;5050198;28;20070;-58
2021/07/03 04:23:09;;;;;;;4.05;2.97;;;512.10;2252.80;;;;;;5049920;28;20033;-59
2021/07/03 04:25:35;;;;;;;5.35;3.70;;;512.10;2252.80;;;;;;5050073;28;20055;-60
2021/07/03 04:28:02;;;;;;;4.43;2.95;;;512.20;2227.20;;;;;;5050247;28;20051;-59
2021/07/03 04:30:27;;;;;;;5.50;3.90;;;512.60;2227.20;;;;;;5049856;28;20025;-62
2021/07/03 04:32:53;;;;;;;4.15;3.20;;;512.80;2201.60;;;;;;5050174;28;20391;-64
2021/07/03 04:35:19;;;;;;;5.50;3.45;;;537.60;2201.60;;;;;;5050065;28;20028;-59
2021/07/03 04:37:45;;;;;;;5.38;3.28;;;537.90;2176.00;;;;;;5050080;28;20087;-63
2021/07/03 04:40:11;;;;;;;5.50;3.38;;;537.70;2176.00;;;;;;5049749;28;20017;-61
2021/07/03 04:42:37;;;;;;;4.15;3.00;;;537.80;2176.00;;;;;;5049949;28;20025;-58
2021/07/03 04:45:04;;;;;;;6.05;3.15;;;537.70;2176.00;;;;;;5050055;28;20024;-59
2021/07/03 04:47:30;;;;;;;5.63;3.22;;;512.90;2176.00;;;;;;5049658;28;20068;-59
2021/07/03 04:49:55;;;;;;;6.75;2.78;;;512.80;2201.60;;;;;;5050101;28;20063;-62
2021/07/03 04:52:22;;;;;;;4.07;2.88;;;512.90;2176.00;;;;;;5049858;28;20021;-58
2021/07/03 04:54:48;;;;;;;4.95;3.15;;;512.90;2176.00;;;;;;5049719;28;20083;-63
2021/07/03 04:57:13;;;;;;;7.65;3.38;;;537.60;2176.00;;;;;;5050042;28;20115;-56
2021/07/03 04:59:41;;;;;;;4.55;2.83;;;537.70;2201.60;;;;;;5050331;28;20175;-58
2021/07/03 05:02:10;;;;;;;3.90;2.63;;;512.90;2176.00;;;;;;5053794;28;20486;-60
2021/07/03 05:04:38;;;;;;;5.68;3.50;;;537.70;2201.60;;;;;;5054293;28;20104;-59
2021/07/03 05:07:04;;;;;;;7.97;2.85;;;512.90;2176.00;;;;;;5053975;28;20497;-57
2021/07/03 05:09:30;;;;;;;4.45;2.83;;;537.60;2201.60;;;;;;5053646;28;20033;-56
2021/07/03 05:11:56;;;;;;;5.90;2.85;;;537.90;2201.60;;;;;;5053838;28;20035;-59
2021/07/03 05:14:23;;;;;;;4.57;2.92;;;537.90;2201.60;;;;;;5054106;28;20021;-61
2021/07/03 05:16:49;;;;;;;5.05;3.03;;;538.00;2150.40;;;;;;5072761;28;20057;-59
2021/07/03 05:19:15;;;;;;;3.47;2.13;;;538.30;2124.80;;;;;;5073151;28;20059;-62
2021/07/03 05:21:42;;;;;;;4.65;2.58;;;538.20;2176.00;;;;;;5073016;28;20052;-56
2021/07/03 05:24:08;;;;;;;3.95;2.50;;;538.30;2150.40;;;;;;5072826;28;20041;-62
2021/07/03 05:26:34;;;;;;;4.45;2.63;;;538.20;2150.40;;;;;;5073282;28;20127;-66
2021/07/03 05:29:00;;;;;;;5.43;3.20;;;538.50;2099.20;;;;;;5073264;28;20055;-57
2021/07/03 05:31:26;;;;;;;4.63;3.13;;;588.90;2048.00;;;;;;5073657;28;20431;-59
2021/07/03 05:33:52;;;;;;;4.45;3.45;;;640.40;1843.20;;;;;;5073272;28;20103;-64
2021/07/03 05:36:17;;;;;;;4.68;2.30;;;665.90;1766.40;;;;;;5073243;28;20031;-60
2021/07/03 05:38:47;;;;;;;3.80;3.35;;;640.70;1766.40;;;;;;5073410;28;20414;-63
2021/07/03 05:41:15;;;;;;;3.80;2.88;;;665.60;1766.40;;;;;;5072655;28;20020;-58
2021/07/03 05:43:42;;;;;;;6.32;2.70;;;665.60;1766.40;;;;;;5073036;28;20421;-61
2021/07/03 05:46:08;;;;;;;5.70;3.30;;;640.40;1792.00;;;;;;5072773;28;20040;-60
2021/07/03 05:48:35;;;;;;;7.90;2.67;;;615.30;1843.20;;;;;;5073419;28;20024;-60
2021/07/03 05:51:02;;;;;;;4.13;2.88;;;614.80;1868.80;;;;;;5072792;28;20032;-58
2021/07/03 05:53:27;;;;;;;4.05;3.20;;;589.70;1894.40;;;;;;5072701;28;20017;-65
2021/07/03 05:55:53;;;;;;;3.58;2.85;;;614.50;1894.40;;;;;;5073038;28;20046;-59
2021/07/03 05:58:19;;;;;;;4.28;3.10;;;615.00;1868.80;;;;;;5072658;28;20055;-60
2021/07/03 06:00:45;;;;;;;6.43;3.30;;;640.80;1740.80;;;;;;5072798;28;20021;-58
2021/07/03 06:03:10;;;;;;;24.20;10.73;;;665.90;1740.80;;;;;;5072971;28;20028;-66
2021/07/03 06:05:36;;;;;;;5.88;3.33;;;691.40;1689.60;;;;;;5072826;28;20029;-56
2021/07/03 06:08:02;;;;;;;6.05;4.88;;;768.40;1433.60;;;;;;5072807;28;20370;-58
2021/07/03 06:10:28;;;;;;;6.10;4.20;;;794.20;1356.80;;;;;;5072514;28;20032;-58
2021/07/03 06:12:54;;;;;;;6.32;4.13;;;793.90;1382.40;;;;;;5071027;28;20028;-58
2021/07/03 06:15:19;;;;;;;6.90;6.20;;;819.80;1280.00;;;;;;5072428;28;20037;-58
2021/07/03 06:17:45;;;;;;;7.03;5.15;;;871.20;1152.00;;;;;;5071291;28;20024;-57
2021/07/03 06:20:13;;;;;;;6.95;6.38;;;921.60;1126.40;;;;;;5072728;28;20052;-60
2021/07/03 06:22:39;;;;;;;6.45;5.93;;;922.50;1049.60;;;;;;5072411;28;20036;-61
2021/07/03 06:25:07;;;;;;;7.20;6.70;;;972.90;972.80;;;;;;5072414;28;20113;-57
2021/07/03 06:27:34;;;;;;;7.05;6.55;;;998.60;947.20;;;;;;5072376;28;20037;-62
2021/07/03 06:30:00;;;;;;;7.10;6.60;;;1024.40;870.40;;;;;;5071027;28;20051;-60
2021/07/03 06:32:26;;;;;;;8.18;7.53;;;1050.20;844.80;;;;;;5071679;28;20028;-62
2021/07/03 06:34:52;;;;;;;8.30;7.60;;;1050.30;819.20;;;;;;5072421;28;20081;-58
2021/07/03 06:37:18;;;;;;;8.60;8.10;;;1049.80;819.20;;;;;;5053587;28;20078;-56
2021/07/03 06:39:44;;;;;;;4.32;3.92;;;1075.50;768.00;;;;;;5072179;28;20029;-58
2021/07/03 06:42:13;;;;;;;4.40;4.00;;;1075.40;768.00;;;;;;5071936;28;20532;-61
2021/07/03 06:44:39;;;;;;;3.95;3.55;;;947.20;921.60;;;;;;5071872;28;20021;-61
2021/07/03 06:47:05;;;;;;;4.57;3.17;;;845.30;1100.80;;;;;;5072162;28;20032;-66
2021/07/03 06:49:31;;;;;;;4.53;3.13;;;794.20;1177.60;;;;;;5072034;28;20025;-62
2021/07/03 06:51:57;;;;;;;4.05;3.65;;;743.30;1254.40;;;;;;5071840;28;20028;-61
2021/07/03 06:54:23;;;;;;;5.15;3.58;;;717.10;1356.80;;;;;;5071636;28;20036;-57
2021/07/03 06:56:57;;;;;;;4.45;3.92;;;716.90;1356.80;;;;;;5071568;28;20028;-58
2021/07/03 06:59:29;;;;;;;8.82;3.53;;;691.40;1382.40;;;;;;5071824;28;20074;-61
2021/07/03 07:01:57;;;;;;;4.88;3.95;;;640.90;1459.20;;;;;;5071707;28;20032;-59
2021/07/03 07:04:24;;;;;;;4.75;3.42;;;640.90;1484.80;;;;;;5071549;28;20031;-62
2021/07/03 07:06:51;;;;;;;4.55;4.15;;;640.90;1484.80;;;;;;5071339;28;20037;-61
2021/07/03 07:09:17;;;;;;;7.35;6.75;;;640.90;1484.80;;;;;;5071215;28;20486;-63
2021/07/03 07:11:44;;;;;;;6.53;5.93;;;768.90;1254.40;;;;;;5071559;28;20025;-57
2021/07/03 07:14:10;;;;;;;6.55;6.05;;;896.10;1024.00;;;;;;5071300;28;20375;-61
2021/07/03 07:16:35;;;;;;;6.53;6.03;;;947.40;947.20;;;;;;5071430;28;20031;-57
2021/07/03 07:19:02;;;;;;;5.63;4.20;;;998.50;896.00;;;;;;5071382;28;20455;-60
2021/07/03 07:21:28;;;;;;;6.93;6.32;;;973.20;896.00;;;;;;5071381;28;20066;-58
2021/07/03 07:23:54;;;;;;;8.45;7.95;;;999.10;870.40;;;;;;5070759;28;20075;-62
2021/07/03 07:26:20;;;;;;;7.75;7.15;;;1024.60;793.60;;;;;;5071054;28;20076;-62
2021/07/03 07:28:48;;;;;;;7.35;6.75;;;1050.30;768.00;;;;;;5071127;28;20027;-61
2021/07/03 07:31:13;;;;;;;5.93;5.20;;;1050.30;768.00;;;;;;5071126;28;20028;-59
2021/07/03 07:33:39;;;;;;;7.35;6.80;;;973.70;844.80;;;;;;5070623;28;20698;-60
2021/07/03 07:36:05;;;;;;;7.93;7.32;;;1024.30;819.20;;;;;;5071046;28;20021;-57
2021/07/03 07:38:31;;;;;;;4.57;4.18;;;948.10;870.40;;;;;;5070468;28;20103;-60
2021/07/03 07:40:57;;;;;;;6.22;3.88;;;921.60;947.20;;;;;;5070715;28;20056;-59
2021/07/03 07:43:22;;;;;;;4.55;4.15;;;820.10;1075.20;;;;;;5071157;28;20036;-59
2021/07/03 07:45:48;;;;;;;4.88;4.38;;;793.60;1152.00;;;;;;5070418;28;20025;-63
2021/07/03 07:48:14;;;;;;;4.40;4.00;;;793.70;1152.00;;;;;;5071137;28;20055;-60
2021/07/03 07:50:41;;;;;;;5.22;4.70;;;742.90;1228.80;;;;;;5070863;28;20463;-59
2021/07/03 07:53:06;;;;;;;5.95;4.40;;;793.60;1177.60;;;;;;5070541;28;20058;-59
2021/07/03 07:55:32;;;;;;;5.25;4.75;;;794.30;1126.40;;;;;;5070763;28;20411;-67
2021/07/03 07:57:58;;;;;;;4.35;3.95;;;743.00;1228.80;;;;;;5070476;28;20059;-64
2021/07/03 08:00:24;;;;;;;9.32;4.93;;;717.70;1280.00;;;;;;5070591;28;20025;-62
2021/07/03 08:02:50;;;;;;;4.80;4.30;;;692.10;1305.60;;;;;;5070427;28;20043;-59
2021/07/03 08:05:17;;;;;;;5.03;4.32;;;691.20;1356.80;;;;;;5070639;28;20031;-63
2021/07/03 08:07:43;;;;;;;5.65;5.05;;;692.00;1305.60;;;;;;5070598;28;20123;-58
2021/07/03 08:10:11;;;;;;;4.80;4.30;;;691.80;1305.60;;;;;;5070149;28;20016;-57
2021/07/03 08:12:37;;;;;;;5.45;4.82;;;691.80;1305.60;;;;;;5070363;28;20059;-58
2021/07/03 08:15:04;;;;;;;4.20;3.80;;;691.60;1331.20;;;;;;5070581;28;20470;-57
2021/07/03 08:17:30;;;;;;;4.25;3.85;;;691.80;1331.20;;;;;;5070234;28;20040;-63
2021/07/03 08:19:57;;;;;;;5.70;4.10;;;742.60;1254.40;;;;;;5070569;28;20025;-62
2021/07/03 08:22:22;;;;;;;6.65;4.55;;;716.90;1305.60;;;;;;5070325;28;20423;-59
2021/07/03 08:24:48;;;;;;;4.45;4.03;;;716.80;1356.80;;;;;;5070082;28;20127;-57
2021/07/03 08:27:14;;;;;;;4.07;3.67;;;717.10;1331.20;;;;;;5052105;28;20045;-65
2021/07/03 08:29:41;;;;;;;4.55;3.85;;;717.40;1305.60;;;;;;5070007;28;20025;-60
2021/07/03 08:32:07;;;;;;;5.40;4.00;;;717.20;1331.20;;;;;;5069992;28;20479;-58
2021/07/03 08:34:32;;;;;;;4.65;3.60;;;716.90;1356.80;;;;;;5069614;28;20112;-60
2021/07/03 08:36:58;;;;;;;4.35;3.75;;;691.60;1356.80;;;;;;5070163;28;20032;-62
2021/07/03 08:39:24;;;;;;;5.65;4.40;;;691.60;1356.80;;;;;;5070091;28;20093;-60
2021/07/03 08:41:50;;;;;;;6.38;4.10;;;691.50;1382.40;;;;;;5070055;28;20039;-61
2021/07/03 08:44:17;;;;;;;7.95;4.00;;;666.30;1459.20;;;;;;5070113;28;20020;-56
2021/07/03 08:46:46;;;;;;;6.00;5.40;;;666.30;1433.60;;;;;;5069853;28;20068;-58
2021/07/03 08:49:17;;;;;;;4.88;4.38;;;666.30;1408.00;;;;;;5070220;28;20107;-60
2021/07/03 08:51:46;;;;;;;5.57;4.32;;;666.50;1408.00;;;;;;5070189;28;20028;-62
2021/07/03 08:54:12;;;;;;;6.63;4.85;;;666.50;1433.60;;;;;;5069970;28;20486;-57
2021/07/03 08:56:37;;;;;;;5.03;4.63;;;666.10;1459.20;;;;;;5069837;28;20075;-58
2021/07/03 08:59:20;;;;;;;6.10;5.30;;;665.90;1484.80;;;;;;5070167;28;20106;-57
2021/07/03 09:02:05;;;;;;;5.10;4.20;;;666.30;1459.20;;;;;;5069857;28;20036;-62
2021/07/03 09:04:42;;;;;;;4.18;3.60;;;666.20;1408.00;;;;;;5069979;28;20033;-63
2021/07/03 09:07:17;;;;;;;4.35;3.95;;;665.90;1433.60;;;;;;5069611;28;20039;-68
2021/07/03 09:09:42;;;;;;;12.10;4.35;;;666.20;1433.60;;;;;;5069873;28;20028;-62
2021/07/03 09:12:08;;;;;;;4.85;4.35;;;666.30;1459.20;;;;;;5069629;28;20028;-64
2021/07/03 09:14:34;;;;;;;7.65;5.20;;;666.30;1459.20;;;;;;5069923;28;20379;-62
2021/07/03 09:17:01;;;;;;;5.50;4.57;;;666.50;1459.20;;;;;;5069853;28;20174;-57
2021/07/03 09:19:29;;;;;;;4.65;4.25;;;691.20;1433.60;;;;;;5069634;28;20028;-57
2021/07/03 09:21:55;;;;;;;5.13;3.75;;;691.30;1459.20;;;;;;5069779;28;20107;-67
2021/07/03 09:24:21;;;;;;;9.15;5.28;;;691.30;1408.00;;;;;;5069222;28;20049;-61
2021/07/03 09:27:03;;;;;;;5.63;4.75;;;691.60;1408.00;;;;;;5069370;28;20475;-56
2021/07/03 09:29:29;;;;;;;4.65;4.25;;;691.90;1408.00;;;;;;5051535;28;20032;-65
2021/07/03 09:32:05;;;;;;;6.25;5.20;;;691.80;1382.40;;;;;;5069728;28;20374;-61
2021/07/03 09:34:31;;;;;;;6.32;4.70;;;691.60;1408.00;;;;;;5069318;28;20471;-58
2021/07/03 09:37:06;;;;;;;5.85;4.43;;;692.10;1382.40;;;;;;5069425;28;20028;-60
2021/07/03 09:39:31;;;;;;;5.38;4.88;;;692.10;1382.40;;;;;;5069386;28;20024;-64
2021/07/03 09:41:59;;;;;;;5.22;4.72;;;692.10;1382.40;;;;;;5069384;28;20035;-57
2021/07/03 09:44:24;;;;;;;5.50;4.68;;;717.10;1408.00;;;;;;5069672;28;20425;-62
2021/07/03 09:46:54;;;;;;;5.70;4.75;;;717.70;1356.80;;;;;;5071629;28;20036;-59
2021/07/03 09:49:28;;;;;;;5.30;4.75;;;717.70;1382.40;;;;;;5073019;28;20493;-59
2021/07/03 09:51:56;;;;;;;10.57;3.78;;;717.20;1356.80;;;;;;5073072;28;20093;-60
2021/07/03 09:54:28;;;;;;;5.55;3.80;;;691.90;1305.60;;;;;;5072956;28;20021;-59
2021/07/03 09:57:00;;;;;;;4.40;3.63;;;691.60;1356.80;;;;;;5072927;28;20031;-58
2021/07/03 09:59:30;;;;;;;4.28;3.67;;;691.60;1331.20;;;;;;5072963;28;20078;-61
2021/07/03 10:01:56;;;;;;;6.43;3.58;;;691.60;1356.80;;;;;;5072911;28;20044;-60
2021/07/03 10:04:22;;;;;;;6.13;3.75;;;691.60;1356.80;;;;;;5072839;28;20029;-59
2021/07/03 10:06:51;;;;;;;6.90;3.83;;;691.70;1356.80;;;;;;5072707;28;20028;-62
2021/07/03 10:09:25;;;;;;;4.88;4.47;;;691.80;1331.20;;;;;;5072828;28;20516;-61
2021/07/03 10:11:55;;;;;;;4.05;3.65;;;692.10;1356.80;;;;;;5072454;28;20471;-57
2021/07/03 10:14:22;;;;;;;5.25;4.40;;;716.80;1408.00;;;;;;5072654;28;20058;-61
2021/07/03 10:16:59;;;;;;;4.60;4.15;;;717.20;1382.40;;;;;;5072378;28;20467;-56
2021/07/03 10:19:33;;;;;;;4.53;4.10;;;717.70;1331.20;;;;;;5072778;28;20044;-58
2021/07/03 10:22:17;;;;;;;5.70;3.65;;;717.40;1356.80;;;;;;5072613;28;20048;-61
2021/07/03 10:25:10;;;;;;;5.57;3.88;;;717.40;1382.40;;;;;;5072074;28;20056;-61
2021/07/03 10:27:36;;;;;;;6.22;3.10;;;692.10;1356.80;;;;;;5072375;28;20116;-61
2021/07/03 10:30:06;;;;;;;5.03;3.75;;;691.80;1356.80;;;;;;5072380;28;20032;-58
2021/07/03 10:32:35;;;;;;;4.10;3.50;;;691.80;1382.40;;;;;;5072391;28;20032;-59
2021/07/03 10:35:11;;;;;;;9.68;4.32;;;691.60;1408.00;;;;;;5072028;28;20020;-59
2021/07/03 10:37:37;;;;;;;4.43;3.97;;;691.80;1382.40;;;;;;5072546;28;20687;-63
2021/07/03 10:40:25;;;;;;;4.45;3.58;;;716.90;1408.00;;;;;;5072134;28;20474;-62
2021/07/03 10:42:52;;;;;;;4.50;4.10;;;717.20;1356.80;;;;;;5053986;28;20066;-61
2021/07/03 10:45:23;;;;;;;4.32;3.92;;;717.40;1331.20;;;;;;5072090;28;20055;-62
2021/07/03 10:47:54;;;;;;;3.95;3.53;;;717.50;1356.80;;;;;;5071945;28;20075;-56
2021/07/03 10:50:21;;;;;;;3.70;3.33;;;716.90;1331.20;;;;;;5071496;28;20020;-60
2021/07/03 10:52:48;;;;;;;4.07;3.40;;;692.00;1305.60;;;;;;5071619;28;20025;-59
2021/07/03 10:55:14;;;;;;;4.13;3.70;;;691.80;1331.20;;;;;;5071883;28;20603;-58
2021/07/03 10:57:42;;;;;;;4.32;3.30;;;691.70;1356.80;;;;;;5071179;28;20149;-60
2021/07/03 11:00:09;;;;;;;4.85;4.20;;;691.60;1382.40;;;;;;5071977;28;20032;-64
2021/07/03 11:02:34;;;;;;;4.20;3.80;;;691.80;1382.40;;;;;;5071835;28;20028;-59
2021/07/03 11:05:09;;;;;;;4.10;3.22;;;692.00;1331.20;;;;;;5070908;28;20020;-60
2021/07/03 11:07:35;;;;;;;5.43;3.20;;;692.10;1305.60;;;;;;5053283;28;20039;-61
2021/07/03 11:10:10;;;;;;;4.00;3.00;;;716.80;1356.80;;;;;;5070872;28;20028;-66
2021/07/03 11:12:51;;;;;;;3.97;2.92;;;691.90;1280.00;;;;;;5071343;28;20035;-59
2021/07/03 11:15:25;;;;;;;3.53;3.00;;;692.10;1305.60;;;;;;5070056;28;20433;-59
2021/07/03 11:17:51;;;;;;;4.32;3.30;;;716.80;1331.20;;;;;;5069031;28;20107;-61
2021/07/03 11:20:30;;;;;;;4.93;4.32;;;717.20;1382.40;;;;;;5071227;28;20020;-63
2021/07/03 11:22:57;;;;;;;5.03;3.80;;;717.50;1331.20;;;;;;5071106;28;20043;-63
2021/07/03 11:25:31;;;;;;;5.20;4.22;;;717.70;1305.60;;;;;;5071108;28;20060;-62
2021/07/03 11:28:08;;;;;;;4.80;3.42;;;742.50;1331.20;;;;;;5071111;28;20043;-59
2021/07/03 11:30:35;;;;;;;4.47;3.83;;;717.10;1331.20;;;;;;5071204;28;20045;-67
2021/07/03 11:33:02;;;;;;;6.43;4.00;;;716.90;1382.40;;;;;;5070748;28;20370;-66
2021/07/03 11:35:30;;;;;;;4.38;3.65;;;692.10;1356.80;;;;;;5070954;28;20378;-61
2021/07/03 11:37:56;;;;;;;5.38;4.03;;;692.10;1382.40;;;;;;5071125;28;20034;-65
2021/07/03 11:40:25;;;;;;;4.32;3.92;;;716.90;1382.40;;;;;;5070975;28;20055;-61
2021/07/03 11:42:54;;;;;;;4.82;3.50;;;717.20;1408.00;;;;;;5070707;28;20032;-62
2021/07/03 11:45:34;;;;;;;4.28;3.53;;;717.10;1382.40;;;;;;5070468;28;20023;-62
2021/07/03 11:48:06;;;;;;;4.18;3.78;;;717.00;1356.80;;;;;;5070912;28;20036;-63
2021/07/03 11:50:38;;;;;;;4.65;3.70;;;717.20;1331.20;;;;;;5070998;28;20032;-65
2021/07/03 11:53:08;;;;;;;4.53;3.83;;;717.30;1331.20;;;;;;5070727;28;20029;-61
2021/07/03 11:55:41;;;;;;;4.30;3.90;;;717.20;1356.80;;;;;;5070905;28;20036;-61
2021/07/03 11:58:10;;;;;;;4.13;3.72;;;716.90;1356.80;;;;;;5070945;28;20017;-59
2021/07/03 12:00:37;;;;;;;4.95;4.00;;;717.10;1331.20;;;;;;5070809;28;20090;-64
2021/07/03 12:03:09;;;;;;;4.85;3.60;;;717.10;1356.80;;;;;;5070858;28;20021;-58
2021/07/03 12:05:38;;;;;;;4.47;3.70;;;692.10;1356.80;;;;;;5070849;28;20081;-64
2021/07/03 12:08:06;;;;;;;4.20;3.28;;;691.60;1382.40;;;;;;5070617;28;20081;-64
2021/07/03 12:10:35;;;;;;;14.95;4.10;;;666.50;1382.40;;;;;;5069475;28;20025;-62
2021/07/03 12:13:01;;;;;;;4.57;3.47;;;666.20;1408.00;;;;;;5070559;28;20419;-60
2021/07/03 12:15:28;;;;;;;4.43;3.42;;;666.20;1433.60;;;;;;5070423;28;20020;-60
2021/07/03 12:17:55;;;;;;;4.40;3.45;;;666.30;1408.00;;;;;;5070699;28;20090;-61
2021/07/03 12:20:21;;;;;;;3.97;3.40;;;666.50;1408.00;;;;;;5070238;28;20036;-62